sensor_id;sensor_type;location;lat;lon;timestamp;pressure;altitude;pressure_sealevel;temperature;humidity
50672;BME280;46021;55.882;37.654;2022-07-17T00:02:01;99417.31;;;15.24;64.26
50672;BME280;46021;55.882;37.654;2022-07-17T00:04:28;99420.34;;;15.32;64.31
50672;BME280;46021;55.882;37.654;2022-07-17T00:06:54;99422.63;;;15.38;63.82
50672;BME280;46021;55.882;37.654;2022-07-17T00:09:21;99423.38;;;15.40;63.93
50672;BME280;46021;55.882;37.654;2022-07-17T00:11:48;99424.91;;;15.44;63.92
50672;BME280;46021;55.882;37.654;2022-07-17T00:14:15;99431.09;;;15.43;63.81
50672;BME280;46021;55.882;37.654;2022-07-17T00:16:42;99432.03;;;15.42;63.97
50672;BME280;46021;55.882;37.654;2022-07-17T00:19:09;99430.34;;;15.41;63.87
50672;BME280;46021;55.882;37.654;2022-07-17T00:21:37;99428.47;;;15.43;63.66
50672;BME280;46021;55.882;37.654;2022-07-17T00:24:05;99431.78;;;15.47;63.71
50672;BME280;46021;55.882;37.654;2022-07-17T00:26:32;99427.28;;;15.49;63.54
50672;BME280;46021;55.882;37.654;2022-07-17T00:28:59;99431.50;;;15.51;63.54
50672;BME280;46021;55.882;37.654;2022-07-17T00:31:26;99424.38;;;15.53;63.34
50672;BME280;46021;55.882;37.654;2022-07-17T00:33:53;99425.34;;;15.52;63.41
50672;BME280;46021;55.882;37.654;2022-07-17T00:36:20;99414.06;;;15.50;63.71
50672;BME280;46021;55.882;37.654;2022-07-17T00:38:47;99430.84;;;15.48;63.69
50672;BME280;46021;55.882;37.654;2022-07-17T00:41:14;99427.63;;;15.43;63.35
50672;BME280;46021;55.882;37.654;2022-07-17T00:43:40;99423.38;;;15.40;63.83
50672;BME280;46021;55.882;37.654;2022-07-17T00:46:08;99421.72;;;15.39;63.68
50672;BME280;46021;55.882;37.654;2022-07-17T00:48:36;99424.41;;;15.37;63.89
50672;BME280;46021;55.882;37.654;2022-07-17T00:51:03;99421.94;;;15.34;64.46
50672;BME280;46021;55.882;37.654;2022-07-17T00:53:30;99428.97;;;15.34;63.83
50672;BME280;46021;55.882;37.654;2022-07-17T00:55:57;99424.00;;;15.29;64.21
50672;BME280;46021;55.882;37.654;2022-07-17T00:58:26;99422.72;;;15.20;64.67
50672;BME280;46021;55.882;37.654;2022-07-17T01:00:55;99417.06;;;15.12;64.87
50672;BME280;46021;55.882;37.654;2022-07-17T01:03:24;99419.06;;;15.07;65.06
50672;BME280;46021;55.882;37.654;2022-07-17T01:05:52;99427.09;;;15.04;65.11
50672;BME280;46021;55.882;37.654;2022-07-17T01:08:20;99424.47;;;15.04;65.36
50672;BME280;46021;55.882;37.654;2022-07-17T01:10:46;99430.56;;;15.05;65.65
50672;BME280;46021;55.882;37.654;2022-07-17T01:13:13;99422.81;;;15.03;65.88
50672;BME280;46021;55.882;37.654;2022-07-17T01:15:41;99419.31;;;15.02;66.01
50672;BME280;46021;55.882;37.654;2022-07-17T01:18:09;99427.03;;;15.06;65.59
50672;BME280;46021;55.882;37.654;2022-07-17T01:20:37;99429.56;;;15.07;65.92
50672;BME280;46021;55.882;37.654;2022-07-17T01:23:06;99425.09;;;15.09;66.18
50672;BME280;46021;55.882;37.654;2022-07-17T01:25:34;99426.94;;;15.07;66.32
50672;BME280;46021;55.882;37.654;2022-07-17T01:28:02;99423.22;;;15.11;66.20
50672;BME280;46021;55.882;37.654;2022-07-17T01:30:29;99431.09;;;15.11;66.54
50672;BME280;46021;55.882;37.654;2022-07-17T01:32:56;99429.31;;;15.12;66.36
50672;BME280;46021;55.882;37.654;2022-07-17T01:35:22;99421.84;;;15.04;66.47
50672;BME280;46021;55.882;37.654;2022-07-17T01:37:49;99436.50;;;15.08;66.97
50672;BME280;46021;55.882;37.654;2022-07-17T01:40:17;99442.44;;;15.12;67.13
50672;BME280;46021;55.882;37.654;2022-07-17T01:42:46;99447.59;;;15.13;67.40
50672;BME280;46021;55.882;37.654;2022-07-17T01:45:14;99443.03;;;15.17;67.28
50672;BME280;46021;55.882;37.654;2022-07-17T01:47:41;99443.81;;;15.19;67.44
50672;BME280;46021;55.882;37.654;2022-07-17T01:50:10;99445.41;;;15.21;67.49
50672;BME280;46021;55.882;37.654;2022-07-17T01:52:38;99446.34;;;15.20;66.96
50672;BME280;46021;55.882;37.654;2022-07-17T01:55:06;99438.47;;;15.20;66.90
50672;BME280;46021;55.882;37.654;2022-07-17T01:57:33;99444.31;;;15.26;67.65
50672;BME280;46021;55.882;37.654;2022-07-17T02:00:00;99437.13;;;15.29;66.71
50672;BME280;46021;55.882;37.654;2022-07-17T02:02:34;99442.88;;;15.36;66.78
50672;BME280;46021;55.882;37.654;2022-07-17T02:05:01;99437.47;;;15.39;66.71
50672;BME280;46021;55.882;37.654;2022-07-17T02:07:29;99433.88;;;15.40;66.79
50672;BME280;46021;55.882;37.654;2022-07-17T02:09:57;99438.78;;;15.46;66.46
50672;BME280;46021;55.882;37.654;2022-07-17T02:12:23;99440.50;;;15.47;66.90
50672;BME280;46021;55.882;37.654;2022-07-17T02:14:51;99452.72;;;15.48;66.64
50672;BME280;46021;55.882;37.654;2022-07-17T02:17:17;99451.84;;;15.48;66.80
50672;BME280;46021;55.882;37.654;2022-07-17T02:19:45;99449.13;;;15.49;66.78
50672;BME280;46021;55.882;37.654;2022-07-17T02:22:11;99445.59;;;15.50;66.84
50672;BME280;46021;55.882;37.654;2022-07-17T02:24:38;99443.22;;;15.46;67.38
50672;BME280;46021;55.882;37.654;2022-07-17T02:27:04;99446.19;;;15.39;67.40
50672;BME280;46021;55.882;37.654;2022-07-17T02:29:31;99442.88;;;15.36;67.18
50672;BME280;46021;55.882;37.654;2022-07-17T02:31:58;99444.75;;;15.34;66.86
50672;BME280;46021;55.882;37.654;2022-07-17T02:34:25;99434.25;;;15.34;67.10
50672;BME280;46021;55.882;37.654;2022-07-17T02:36:52;99443.81;;;15.35;68.40
50672;BME280;46021;55.882;37.654;2022-07-17T02:39:18;99447.97;;;15.39;68.37
50672;BME280;46021;55.882;37.654;2022-07-17T02:41:45;99442.53;;;15.42;68.30
50672;BME280;46021;55.882;37.654;2022-07-17T02:44:11;99440.56;;;15.46;68.44
50672;BME280;46021;55.882;37.654;2022-07-17T02:46:38;99440.50;;;15.47;67.67
50672;BME280;46021;55.882;37.654;2022-07-17T02:49:05;99442.22;;;15.48;67.78
50672;BME280;46021;55.882;37.654;2022-07-17T02:51:32;99448.22;;;15.50;67.51
50672;BME280;46021;55.882;37.654;2022-07-17T02:53:59;99447.47;;;15.48;67.26
50672;BME280;46021;55.882;37.654;2022-07-17T02:56:25;99442.38;;;15.45;68.01
50672;BME280;46021;55.882;37.654;2022-07-17T02:58:52;99442.22;;;15.48;67.60
50672;BME280;46021;55.882;37.654;2022-07-17T03:01:18;99443.53;;;15.55;67.08
50672;BME280;46021;55.882;37.654;2022-07-17T03:03:45;99446.75;;;15.60;67.03
50672;BME280;46021;55.882;37.654;2022-07-17T03:06:12;99447.44;;;15.64;66.90
50672;BME280;46021;55.882;37.654;2022-07-17T03:08:39;99443.78;;;15.67;67.42
50672;BME280;46021;55.882;37.654;2022-07-17T03:11:05;99444.38;;;15.72;67.05
50672;BME280;46021;55.882;37.654;2022-07-17T03:13:32;99451.75;;;15.81;66.77
50672;BME280;46021;55.882;37.654;2022-07-17T03:16:00;99450.47;;;15.88;66.31
50672;BME280;46021;55.882;37.654;2022-07-17T03:18:27;99457.09;;;15.95;67.23
50672;BME280;46021;55.882;37.654;2022-07-17T03:20:53;99457.56;;;16.02;67.43
50672;BME280;46021;55.882;37.654;2022-07-17T03:23:21;99451.09;;;16.08;67.49
50672;BME280;46021;55.882;37.654;2022-07-17T03:25:47;99443.97;;;16.10;67.06
50672;BME280;46021;55.882;37.654;2022-07-17T03:28:14;99454.31;;;16.13;66.96
50672;BME280;46021;55.882;37.654;2022-07-17T03:30:41;99446.97;;;16.18;67.01
50672;BME280;46021;55.882;37.654;2022-07-17T03:33:08;99449.44;;;16.21;67.01
50672;BME280;46021;55.882;37.654;2022-07-17T03:35:35;99447.31;;;16.28;67.31
50672;BME280;46021;55.882;37.654;2022-07-17T03:38:02;99456.63;;;16.33;67.35
50672;BME280;46021;55.882;37.654;2022-07-17T03:40:30;99455.41;;;16.39;66.92
50672;BME280;46021;55.882;37.654;2022-07-17T03:42:57;99452.50;;;16.44;66.37
50672;BME280;46021;55.882;37.654;2022-07-17T03:45:24;99450.34;;;16.50;66.68
50672;BME280;46021;55.882;37.654;2022-07-17T03:47:51;99462.09;;;16.59;65.99
50672;BME280;46021;55.882;37.654;2022-07-17T03:50:17;99452.72;;;16.69;66.60
50672;BME280;46021;55.882;37.654;2022-07-17T03:52:44;99462.69;;;16.79;66.06
50672;BME280;46021;55.882;37.654;2022-07-17T03:55:11;99460.63;;;16.84;65.30
50672;BME280;46021;55.882;37.654;2022-07-17T03:57:38;99456.56;;;16.78;65.60
50672;BME280;46021;55.882;37.654;2022-07-17T04:00:05;99464.84;;;16.72;65.41
50672;BME280;46021;55.882;37.654;2022-07-17T04:02:37;99461.16;;;16.74;66.11
50672;BME280;46021;55.882;37.654;2022-07-17T04:05:05;99455.56;;;16.81;66.10
50672;BME280;46021;55.882;37.654;2022-07-17T04:07:35;99456.31;;;16.97;65.78
50672;BME280;46021;55.882;37.654;2022-07-17T04:10:03;99455.56;;;17.09;64.90
50672;BME280;46021;55.882;37.654;2022-07-17T04:12:29;99465.53;;;17.19;64.64
50672;BME280;46021;55.882;37.654;2022-07-17T04:14:57;99465.03;;;17.26;63.36
50672;BME280;46021;55.882;37.654;2022-07-17T04:17:24;99458.53;;;17.32;63.49
50672;BME280;46021;55.882;37.654;2022-07-17T04:19:50;99464.34;;;17.37;62.39
50672;BME280;46021;55.882;37.654;2022-07-17T04:22:17;99460.97;;;17.35;61.35
50672;BME280;46021;55.882;37.654;2022-07-17T04:24:44;99460.69;;;17.40;61.32
50672;BME280;46021;55.882;37.654;2022-07-17T04:27:11;99469.81;;;17.34;61.42
50672;BME280;46021;55.882;37.654;2022-07-17T04:29:38;99470.41;;;17.25;60.32
50672;BME280;46021;55.882;37.654;2022-07-17T04:32:06;99454.78;;;17.22;60.58
50672;BME280;46021;55.882;37.654;2022-07-17T04:34:34;99462.03;;;17.18;59.39
50672;BME280;46021;55.882;37.654;2022-07-17T04:37:02;99453.69;;;17.11;59.36
50672;BME280;46021;55.882;37.654;2022-07-17T04:39:30;99460.03;;;17.22;59.36
50672;BME280;46021;55.882;37.654;2022-07-17T04:41:57;99462.47;;;17.39;59.36
50672;BME280;46021;55.882;37.654;2022-07-17T04:44:24;99457.06;;;17.55;58.60
50672;BME280;46021;55.882;37.654;2022-07-17T04:46:50;99452.88;;;17.65;58.26
50672;BME280;46021;55.882;37.654;2022-07-17T04:49:17;99454.75;;;17.63;56.97
50672;BME280;46021;55.882;37.654;2022-07-17T04:51:44;99446.84;;;17.63;56.98
50672;BME280;46021;55.882;37.654;2022-07-17T04:54:10;99452.09;;;17.78;57.03
50672;BME280;46021;55.882;37.654;2022-07-17T04:56:37;99451.31;;;17.90;56.94
50672;BME280;46021;55.882;37.654;2022-07-17T04:59:04;99445.03;;;18.05;56.61
50672;BME280;46021;55.882;37.654;2022-07-17T05:01:30;99451.06;;;18.20;56.12
50672;BME280;46021;55.882;37.654;2022-07-17T05:03:57;99449.31;;;18.34;55.86
50672;BME280;46021;55.882;37.654;2022-07-17T05:06:24;99454.38;;;18.49;55.81
50672;BME280;46021;55.882;37.654;2022-07-17T05:08:51;99447.41;;;18.61;55.45
50672;BME280;46021;55.882;37.654;2022-07-17T05:11:18;99441.47;;;18.70;55.52
50672;BME280;46021;55.882;37.654;2022-07-17T05:13:44;99448.69;;;18.81;55.33
50672;BME280;46021;55.882;37.654;2022-07-17T05:16:11;99444.16;;;18.96;55.13
50672;BME280;46021;55.882;37.654;2022-07-17T05:18:37;99450.97;;;19.12;54.80
50672;BME280;46021;55.882;37.654;2022-07-17T05:21:04;99443.53;;;19.29;54.22
50672;BME280;46021;55.882;37.654;2022-07-17T05:23:31;99441.25;;;19.49;53.94
50672;BME280;46021;55.882;37.654;2022-07-17T05:25:58;99446.56;;;19.73;53.86
50672;BME280;46021;55.882;37.654;2022-07-17T05:28:24;99447.41;;;20.09;53.08
50672;BME280;46021;55.882;37.654;2022-07-17T05:30:51;99441.13;;;20.34;51.73
50672;BME280;46021;55.882;37.654;2022-07-17T05:33:18;99442.94;;;20.56;52.30
50672;BME280;46021;55.882;37.654;2022-07-17T05:35:44;99451.44;;;20.73;50.90
50672;BME280;46021;55.882;37.654;2022-07-17T05:38:21;99459.41;;;20.84;50.12
50672;BME280;46021;55.882;37.654;2022-07-17T05:40:49;99451.22;;;20.87;50.16
50672;BME280;46021;55.882;37.654;2022-07-17T05:43:16;99461.09;;;20.74;50.20
50672;BME280;46021;55.882;37.654;2022-07-17T05:45:42;99462.53;;;20.78;50.25
50672;BME280;46021;55.882;37.654;2022-07-17T05:48:09;99452.13;;;21.42;51.92
50672;BME280;46021;55.882;37.654;2022-07-17T05:50:35;99459.03;;;22.73;50.59
50672;BME280;46021;55.882;37.654;2022-07-17T05:53:03;99443.16;;;24.03;48.39
50672;BME280;46021;55.882;37.654;2022-07-17T05:55:30;99445.59;;;24.63;45.22
50672;BME280;46021;55.882;37.654;2022-07-17T05:57:57;99442.91;;;25.38;43.99
50672;BME280;46021;55.882;37.654;2022-07-17T06:00:24;99441.59;;;26.05;42.96
50672;BME280;46021;55.882;37.654;2022-07-17T06:02:50;99437.31;;;26.13;41.19
50672;BME280;46021;55.882;37.654;2022-07-17T06:05:17;99440.09;;;25.57;40.11
50672;BME280;46021;55.882;37.654;2022-07-17T06:07:44;99425.69;;;25.22;40.97
50672;BME280;46021;55.882;37.654;2022-07-17T06:10:11;99444.97;;;25.16;41.33
50672;BME280;46021;55.882;37.654;2022-07-17T06:12:38;99440.84;;;25.49;40.85
50672;BME280;46021;55.882;37.654;2022-07-17T06:15:06;99433.94;;;25.75;40.69
50672;BME280;46021;55.882;37.654;2022-07-17T06:17:33;99431.72;;;26.06;40.55
50672;BME280;46021;55.882;37.654;2022-07-17T06:20:00;99430.56;;;26.53;40.20
50672;BME280;46021;55.882;37.654;2022-07-17T06:22:26;99424.59;;;27.28;39.78
50672;BME280;46021;55.882;37.654;2022-07-17T06:24:54;99429.09;;;27.94;38.33
50672;BME280;46021;55.882;37.654;2022-07-17T06:27:21;99432.03;;;27.67;36.63
50672;BME280;46021;55.882;37.654;2022-07-17T06:29:48;99434.44;;;26.32;36.70
50672;BME280;46021;55.882;37.654;2022-07-17T06:32:16;99432.59;;;24.87;38.66
50672;BME280;46021;55.882;37.654;2022-07-17T06:34:43;99429.69;;;23.85;39.95
50672;BME280;46021;55.882;37.654;2022-07-17T06:37:23;99420.34;;;22.80;40.28
50672;BME280;46021;55.882;37.654;2022-07-17T06:39:49;99431.09;;;22.15;41.50
50672;BME280;46021;55.882;37.654;2022-07-17T06:42:16;99438.81;;;21.65;41.97
50672;BME280;46021;55.882;37.654;2022-07-17T06:44:42;99435.16;;;21.11;43.12
50672;BME280;46021;55.882;37.654;2022-07-17T06:47:09;99431.47;;;20.91;43.37
50672;BME280;46021;55.882;37.654;2022-07-17T06:49:36;99423.13;;;20.62;43.85
50672;BME280;46021;55.882;37.654;2022-07-17T06:52:03;99422.84;;;20.42;44.08
50672;BME280;46021;55.882;37.654;2022-07-17T06:54:30;99419.34;;;20.31;44.34
50672;BME280;46021;55.882;37.654;2022-07-17T06:56:56;99420.53;;;20.15;44.57
50672;BME280;46021;55.882;37.654;2022-07-17T06:59:24;99416.88;;;20.05;44.53
50672;BME280;46021;55.882;37.654;2022-07-17T07:01:50;99421.44;;;20.03;44.82
50672;BME280;46021;55.882;37.654;2022-07-17T07:04:17;99413.91;;;19.85;44.51
50672;BME280;46021;55.882;37.654;2022-07-17T07:06:44;99419.69;;;19.79;45.06
50672;BME280;46021;55.882;37.654;2022-07-17T07:09:11;99416.81;;;19.70;46.02
50672;BME280;46021;55.882;37.654;2022-07-17T07:11:37;99427.53;;;19.68;45.76
50672;BME280;46021;55.882;37.654;2022-07-17T07:14:04;99425.25;;;19.51;46.62
50672;BME280;46021;55.882;37.654;2022-07-17T07:16:31;99420.66;;;19.41;46.60
50672;BME280;46021;55.882;37.654;2022-07-17T07:18:57;99422.34;;;19.42;47.01
50672;BME280;46021;55.882;37.654;2022-07-17T07:21:24;99417.06;;;19.42;46.53
50672;BME280;46021;55.882;37.654;2022-07-17T07:23:52;99417.25;;;19.39;46.89
50672;BME280;46021;55.882;37.654;2022-07-17T07:26:19;99412.59;;;19.43;46.83
50672;BME280;46021;55.882;37.654;2022-07-17T07:28:46;99420.84;;;19.51;46.69
50672;BME280;46021;55.882;37.654;2022-07-17T07:31:12;99415.66;;;19.50;46.30
50672;BME280;46021;55.882;37.654;2022-07-17T07:33:39;99416.59;;;19.48;46.13
50672;BME280;46021;55.882;37.654;2022-07-17T07:36:06;99424.66;;;19.47;46.10
50672;BME280;46021;55.882;37.654;2022-07-17T07:38:32;99416.84;;;19.45;46.17
50672;BME280;46021;55.882;37.654;2022-07-17T07:41:00;99419.53;;;19.57;46.29
50672;BME280;46021;55.882;37.654;2022-07-17T07:43:26;99424.16;;;19.66;46.25
50672;BME280;46021;55.882;37.654;2022-07-17T07:45:53;99400.69;;;19.61;46.18
50672;BME280;46021;55.882;37.654;2022-07-17T07:48:20;99405.72;;;19.77;46.17
50672;BME280;46021;55.882;37.654;2022-07-17T07:50:47;99404.63;;;19.80;45.91
50672;BME280;46021;55.882;37.654;2022-07-17T07:53:13;99394.91;;;19.80;46.32
50672;BME280;46021;55.882;37.654;2022-07-17T07:55:39;99402.72;;;19.82;45.40
50672;BME280;46021;55.882;37.654;2022-07-17T07:58:08;99412.63;;;19.91;45.56
50672;BME280;46021;55.882;37.654;2022-07-17T08:00:37;99409.72;;;19.94;45.65
50672;BME280;46021;55.882;37.654;2022-07-17T08:03:04;99405.09;;;20.09;45.49
50672;BME280;46021;55.882;37.654;2022-07-17T08:05:31;99412.38;;;20.41;45.32
50672;BME280;46021;55.882;37.654;2022-07-17T08:07:58;99416.28;;;20.71;45.56
50672;BME280;46021;55.882;37.654;2022-07-17T08:10:25;99410.47;;;20.99;45.07
50672;BME280;46021;55.882;37.654;2022-07-17T08:12:54;99422.41;;;21.16;44.00
50672;BME280;46021;55.882;37.654;2022-07-17T08:15:22;99419.38;;;21.21;43.38
50672;BME280;46021;55.882;37.654;2022-07-17T08:17:51;99418.75;;;21.40;43.46
50672;BME280;46021;55.882;37.654;2022-07-17T08:20:18;99420.41;;;21.52;42.46
50672;BME280;46021;55.882;37.654;2022-07-17T08:22:45;99418.25;;;21.57;42.47
50672;BME280;46021;55.882;37.654;2022-07-17T08:25:13;99422.88;;;21.76;42.61
50672;BME280;46021;55.882;37.654;2022-07-17T08:27:40;99416.41;;;21.90;41.01
50672;BME280;46021;55.882;37.654;2022-07-17T08:30:09;99429.41;;;21.72;42.05
50672;BME280;46021;55.882;37.654;2022-07-17T08:32:37;99422.81;;;21.55;41.27
50672;BME280;46021;55.882;37.654;2022-07-17T08:35:05;99419.09;;;21.47;41.46
50672;BME280;46021;55.882;37.654;2022-07-17T08:37:42;99415.94;;;21.41;41.92
50672;BME280;46021;55.882;37.654;2022-07-17T08:40:15;99426.78;;;21.61;42.01
50672;BME280;46021;55.882;37.654;2022-07-17T08:42:42;99430.56;;;21.79;41.23
50672;BME280;46021;55.882;37.654;2022-07-17T08:45:09;99425.72;;;22.06;41.64
50672;BME280;46021;55.882;37.654;2022-07-17T08:47:37;99423.84;;;22.29;40.84
50672;BME280;46021;55.882;37.654;2022-07-17T08:50:03;99421.84;;;22.42;40.28
50672;BME280;46021;55.882;37.654;2022-07-17T08:52:30;99419.44;;;22.39;40.92
50672;BME280;46021;55.882;37.654;2022-07-17T08:54:57;99425.97;;;22.35;40.57
50672;BME280;46021;55.882;37.654;2022-07-17T08:57:24;99420.63;;;21.93;41.09
50672;BME280;46021;55.882;37.654;2022-07-17T08:59:50;99426.44;;;21.87;41.09
50672;BME280;46021;55.882;37.654;2022-07-17T09:02:17;99425.53;;;21.76;40.95
50672;BME280;46021;55.882;37.654;2022-07-17T09:04:52;99423.16;;;21.62;41.42
50672;BME280;46021;55.882;37.654;2022-07-17T09:07:19;99433.75;;;21.62;41.80
50672;BME280;46021;55.882;37.654;2022-07-17T09:09:50;99427.63;;;21.61;41.82
50672;BME280;46021;55.882;37.654;2022-07-17T09:12:16;99442.78;;;21.71;42.36
50672;BME280;46021;55.882;37.654;2022-07-17T09:14:43;99438.75;;;21.88;41.65
50672;BME280;46021;55.882;37.654;2022-07-17T09:17:11;99439.38;;;22.33;41.80
50672;BME280;46021;55.882;37.654;2022-07-17T09:19:40;99428.53;;;23.39;40.58
50672;BME280;46021;55.882;37.654;2022-07-17T09:22:10;99428.72;;;25.09;39.71
50672;BME280;46021;55.882;37.654;2022-07-17T09:24:43;99440.06;;;26.73;35.73
50672;BME280;46021;55.882;37.654;2022-07-17T09:27:12;99438.38;;;27.07;34.56
50672;BME280;46021;55.882;37.654;2022-07-17T09:29:53;99455.75;;;26.24;33.20
50672;BME280;46021;55.882;37.654;2022-07-17T09:32:20;99436.00;;;24.03;34.73
50672;BME280;46021;55.882;37.654;2022-07-17T09:34:47;99443.00;;;22.84;35.27
50672;BME280;46021;55.882;37.654;2022-07-17T09:37:15;99459.22;;;21.97;36.89
50672;BME280;46021;55.882;37.654;2022-07-17T09:39:42;99463.56;;;21.32;37.62
50672;BME280;46021;55.882;37.654;2022-07-17T09:42:09;99471.81;;;20.95;38.99
50672;BME280;46021;55.882;37.654;2022-07-17T09:44:36;99460.09;;;20.75;39.44
50672;BME280;46021;55.882;37.654;2022-07-17T09:47:06;99461.81;;;20.76;39.80
50672;BME280;46021;55.882;37.654;2022-07-17T09:49:33;99451.34;;;20.97;40.50
50672;BME280;46021;55.882;37.654;2022-07-17T09:52:01;99446.09;;;21.52;40.35
50672;BME280;46021;55.882;37.654;2022-07-17T09:54:29;99439.16;;;22.04;39.53
50672;BME280;46021;55.882;37.654;2022-07-17T09:56:58;99453.81;;;22.62;38.89
50672;BME280;46021;55.882;37.654;2022-07-17T09:59:25;99445.88;;;23.02;37.49
50672;BME280;46021;55.882;37.654;2022-07-17T10:01:59;99429.63;;;22.95;37.59
50672;BME280;46021;55.882;37.654;2022-07-17T10:04:26;99441.75;;;23.19;37.54
50672;BME280;46021;55.882;37.654;2022-07-17T10:06:54;99425.44;;;23.53;37.52
50672;BME280;46021;55.882;37.654;2022-07-17T10:09:21;99443.69;;;24.06;37.62
50672;BME280;46021;55.882;37.654;2022-07-17T10:11:50;99447.19;;;24.83;37.20
50672;BME280;46021;55.882;37.654;2022-07-17T10:14:18;99446.88;;;24.96;34.90
50672;BME280;46021;55.882;37.654;2022-07-17T10:16:45;99429.91;;;24.60;32.98
50672;BME280;46021;55.882;37.654;2022-07-17T10:19:16;99437.59;;;24.63;34.23
50672;BME280;46021;55.882;37.654;2022-07-17T10:21:53;99429.84;;;25.35;34.08
50672;BME280;46021;55.882;37.654;2022-07-17T10:24:21;99443.38;;;26.23;34.45
50672;BME280;46021;55.882;37.654;2022-07-17T10:26:47;99441.72;;;26.74;32.89
50672;BME280;46021;55.882;37.654;2022-07-17T10:29:31;99435.63;;;26.12;31.58
50672;BME280;46021;55.882;37.654;2022-07-17T10:31:59;99433.78;;;25.58;33.14
50672;BME280;46021;55.882;37.654;2022-07-17T10:34:40;99433.50;;;25.06;32.66
50672;BME280;46021;55.882;37.654;2022-07-17T10:37:15;99430.25;;;24.84;33.37
50672;BME280;46021;55.882;37.654;2022-07-17T10:40:01;99431.91;;;25.13;33.61
50672;BME280;46021;55.882;37.654;2022-07-17T10:42:38;99439.72;;;25.52;33.63
50672;BME280;46021;55.882;37.654;2022-07-17T10:45:10;99434.03;;;26.45;32.66
50672;BME280;46021;55.882;37.654;2022-07-17T10:47:46;99439.00;;;27.27;30.23
50672;BME280;46021;55.882;37.654;2022-07-17T10:50:13;99439.72;;;27.45;30.15
50672;BME280;46021;55.882;37.654;2022-07-17T10:52:40;99430.34;;;27.49;28.82
50672;BME280;46021;55.882;37.654;2022-07-17T10:55:17;99424.63;;;27.36;28.26
50672;BME280;46021;55.882;37.654;2022-07-17T10:57:46;99434.97;;;27.98;28.92
50672;BME280;46021;55.882;37.654;2022-07-17T11:00:14;99428.75;;;28.14;28.50
50672;BME280;46021;55.882;37.654;2022-07-17T11:02:41;99423.53;;;28.53;28.64
50672;BME280;46021;55.882;37.654;2022-07-17T11:05:08;99426.75;;;28.88;28.10
50672;BME280;46021;55.882;37.654;2022-07-17T11:07:35;99425.94;;;29.59;28.58
50672;BME280;46021;55.882;37.654;2022-07-17T11:10:02;99419.28;;;30.39;27.90
50672;BME280;46021;55.882;37.654;2022-07-17T11:12:32;99403.47;;;31.25;26.68
50672;BME280;46021;55.882;37.654;2022-07-17T11:15:00;99399.63;;;31.34;26.15
50672;BME280;46021;55.882;37.654;2022-07-17T11:17:27;99396.94;;;30.98;24.65
50672;BME280;46021;55.882;37.654;2022-07-17T11:19:53;99387.84;;;30.84;26.27
50672;BME280;46021;55.882;37.654;2022-07-17T11:22:23;99395.72;;;30.85;26.00
50672;BME280;46021;55.882;37.654;2022-07-17T11:24:50;99393.47;;;31.04;25.92
50672;BME280;46021;55.882;37.654;2022-07-17T11:27:20;99394.22;;;31.13;25.21
50672;BME280;46021;55.882;37.654;2022-07-17T11:29:47;99404.16;;;31.12;24.95
50672;BME280;46021;55.882;37.654;2022-07-17T11:32:14;99386.38;;;31.33;23.77
50672;BME280;46021;55.882;37.654;2022-07-17T11:34:41;99406.41;;;31.30;23.77
50672;BME280;46021;55.882;37.654;2022-07-17T11:37:08;99410.41;;;30.53;23.84
50672;BME280;46021;55.882;37.654;2022-07-17T11:39:39;99394.22;;;29.54;24.25
50672;BME280;46021;55.882;37.654;2022-07-17T11:42:07;99400.22;;;28.54;25.37
50672;BME280;46021;55.882;37.654;2022-07-17T11:44:34;99388.53;;;27.56;26.47
50672;BME280;46021;55.882;37.654;2022-07-17T11:47:02;99383.72;;;27.09;26.51
50672;BME280;46021;55.882;37.654;2022-07-17T11:49:32;99388.63;;;26.79;27.48
50672;BME280;46021;55.882;37.654;2022-07-17T11:52:07;99391.28;;;26.53;27.74
50672;BME280;46021;55.882;37.654;2022-07-17T11:54:44;99386.59;;;26.47;28.16
50672;BME280;46021;55.882;37.654;2022-07-17T11:57:10;99388.47;;;26.55;28.22
50672;BME280;46021;55.882;37.654;2022-07-17T11:59:37;99388.78;;;26.52;27.98
50672;BME280;46021;55.882;37.654;2022-07-17T12:02:08;99389.44;;;26.54;28.39
50672;BME280;46021;55.882;37.654;2022-07-17T12:04:35;99393.81;;;26.55;28.36
50672;BME280;46021;55.882;37.654;2022-07-17T12:07:03;99392.34;;;26.34;28.41
50672;BME280;46021;55.882;37.654;2022-07-17T12:09:32;99372.69;;;25.73;29.17
50672;BME280;46021;55.882;37.654;2022-07-17T12:12:00;99386.19;;;25.36;29.61
50672;BME280;46021;55.882;37.654;2022-07-17T12:14:27;99386.63;;;25.03;30.01
50672;BME280;46021;55.882;37.654;2022-07-17T12:16:56;99387.88;;;24.81;30.13
50672;BME280;46021;55.882;37.654;2022-07-17T12:19:24;99393.75;;;24.38;31.33
50672;BME280;46021;55.882;37.654;2022-07-17T12:21:53;99382.75;;;24.03;31.43
50672;BME280;46021;55.882;37.654;2022-07-17T12:24:26;99395.09;;;23.85;31.97
50672;BME280;46021;55.882;37.654;2022-07-17T12:26:55;99387.50;;;23.61;32.22
50672;BME280;46021;55.882;37.654;2022-07-17T12:29:23;99391.41;;;23.47;32.42
50672;BME280;46021;55.882;37.654;2022-07-17T12:32:01;99384.97;;;23.49;32.81
50672;BME280;46021;55.882;37.654;2022-07-17T12:34:27;99390.84;;;23.53;32.72
50672;BME280;46021;55.882;37.654;2022-07-17T12:36:54;99387.66;;;23.69;32.74
50672;BME280;46021;55.882;37.654;2022-07-17T12:39:20;99379.81;;;23.87;32.29
50672;BME280;46021;55.882;37.654;2022-07-17T12:41:48;99379.34;;;24.21;32.34
50672;BME280;46021;55.882;37.654;2022-07-17T12:44:14;99378.75;;;24.27;31.91
50672;BME280;46021;55.882;37.654;2022-07-17T12:46:41;99383.50;;;24.43;31.99
50672;BME280;46021;55.882;37.654;2022-07-17T12:49:07;99376.97;;;24.65;31.97
50672;BME280;46021;55.882;37.654;2022-07-17T12:51:34;99376.69;;;24.68;31.91
50672;BME280;46021;55.882;37.654;2022-07-17T12:54:01;99377.88;;;24.56;32.10